createdAt,value
2024-02-03T11:07:38.839Z,3.50
2024-02-03T11:10:06.906Z,3.71
2024-02-03T11:12:37.929Z,3.74
2024-02-03T11:15:12.181Z,3.97
2024-02-03T11:17:44.118Z,3.83
2024-02-03T11:20:22.008Z,3.94
2024-02-03T11:22:57.824Z,3.86
2024-02-03T11:25:26.465Z,3.93
2024-02-03T11:27:53.708Z,4.10
2024-02-03T11:30:20.929Z,4.29
2024-02-03T11:32:49.352Z,4.56
2024-02-03T11:35:17.426Z,4.68
2024-02-03T11:37:45.013Z,4.68
2024-02-03T11:40:12.509Z,4.80
2024-02-03T11:42:39.778Z,4.74
2024-02-03T11:45:30.870Z,4.67
2024-02-03T11:48:00.301Z,4.68
2024-02-03T11:50:29.226Z,4.48
2024-02-03T11:52:57.883Z,4.38
2024-02-03T11:55:25.260Z,4.26
2024-02-03T11:57:52.543Z,4.15
2024-02-03T12:00:21.464Z,4.04
2024-02-03T12:02:48.970Z,3.91
2024-02-03T12:05:16.832Z,3.79
2024-02-03T12:07:44.184Z,3.73
2024-02-03T12:10:11.682Z,3.61
2024-02-03T12:12:40.705Z,3.55
2024-02-03T12:15:10.356Z,3.40
2024-02-03T12:17:37.666Z,3.47
2024-02-03T12:20:05.261Z,3.39
2024-02-03T12:22:35.549Z,3.20
2024-02-03T12:25:03.033Z,3.12
2024-02-03T12:27:30.652Z,2.95
2024-02-03T12:29:58.797Z,2.70
2024-02-03T12:32:25.952Z,2.66
2024-02-03T12:34:54.161Z,2.61
2024-02-03T12:37:21.392Z,2.58
2024-02-03T12:39:48.563Z,2.55
2024-02-03T12:42:15.842Z,2.46
2024-02-03T12:44:42.978Z,2.44
2024-02-03T12:47:10.102Z,2.31
2024-02-03T12:49:37.322Z,2.27
2024-02-03T12:52:06.186Z,2.23
2024-02-03T12:54:33.384Z,2.17
2024-02-03T12:57:00.607Z,2.04
2024-02-03T12:59:27.723Z,1.69
2024-02-03T13:01:54.994Z,1.90
2024-02-03T13:04:22.122Z,1.83
2024-02-03T13:06:49.297Z,1.59
2024-02-03T13:09:16.911Z,1.72
2024-02-03T13:11:44.032Z,1.64
2024-02-03T13:14:11.117Z,1.56
2024-02-03T13:16:38.585Z,1.71
2024-02-03T13:19:05.801Z,1.83
2024-02-03T13:21:33.019Z,1.82
2024-02-03T13:24:00.153Z,1.79
2024-02-03T13:26:27.391Z,1.82
2024-02-03T13:28:54.652Z,1.81
2024-02-03T13:31:27.164Z,1.78
2024-02-03T13:33:54.627Z,1.69
2024-02-03T13:36:22.001Z,1.69
2024-02-03T13:38:49.704Z,1.71
2024-02-03T13:41:16.946Z,1.65
2024-02-03T13:43:44.087Z,1.63
2024-02-03T13:46:11.524Z,1.48
2024-02-03T13:48:38.862Z,1.55
2024-02-03T13:51:06.707Z,1.58
2024-02-03T13:53:33.927Z,1.24
2024-02-03T13:56:02.711Z,1.33
2024-02-03T13:58:29.857Z,1.36
2024-02-03T14:00:57.030Z,1.36
2024-02-03T14:03:24.266Z,1.34
2024-02-03T14:05:51.456Z,1.28
2024-02-03T14:08:20.815Z,1.21
2024-02-03T14:10:49.620Z,1.21
2024-02-03T14:13:16.763Z,1.24
2024-02-03T14:15:44.936Z,1.24
2024-02-03T14:18:12.092Z,1.34
2024-02-03T14:20:39.817Z,1.37
2024-02-03T14:23:06.902Z,1.46
2024-02-03T14:25:36.328Z,1.43
2024-02-03T14:28:04.982Z,1.59
2024-02-03T14:30:32.146Z,1.64
2024-02-03T14:32:59.296Z,1.69
2024-02-03T14:35:26.554Z,1.67
2024-02-03T14:37:53.768Z,1.67
2024-02-03T14:40:20.902Z,1.70
2024-02-03T14:42:48.217Z,1.69
2024-02-03T14:45:16.312Z,1.72
2024-02-03T14:47:43.433Z,1.70
2024-02-03T14:50:11.023Z,1.78
2024-02-03T14:52:38.315Z,1.75
2024-02-03T14:55:05.889Z,1.75
2024-02-03T14:57:33.008Z,1.77
2024-02-03T15:00:00.145Z,1.80
2024-02-03T15:02:27.273Z,1.82
2024-02-03T15:04:54.469Z,1.68
2024-02-03T15:07:21.663Z,1.66
2024-02-03T15:09:49.098Z,1.80
2024-02-03T15:12:16.362Z,1.82
2024-02-03T15:14:43.509Z,1.83
2024-02-03T15:17:10.602Z,1.87
2024-02-03T15:19:37.914Z,1.88
2024-02-03T15:22:05.232Z,1.91
2024-02-03T15:24:32.492Z,1.89
2024-02-03T15:26:59.696Z,1.99
2024-02-03T15:29:26.811Z,1.88
2024-02-03T15:31:53.983Z,1.91
2024-02-03T15:34:21.205Z,1.89
2024-02-03T15:36:49.571Z,1.88
2024-02-03T15:39:16.803Z,1.80
2024-02-03T15:41:43.939Z,1.84
2024-02-03T15:44:12.002Z,1.84
2024-02-03T15:46:44.757Z,1.80
2024-02-03T15:49:13.803Z,1.77
2024-02-03T15:51:41.037Z,1.79
2024-02-03T15:54:09.063Z,1.78
2024-02-03T15:56:37.105Z,1.78
2024-02-03T15:59:04.898Z,1.80
2024-02-03T16:01:32.359Z,1.76
2024-02-03T16:03:59.924Z,1.77
2024-02-03T16:06:27.265Z,1.72
2024-02-03T16:08:54.413Z,1.62
2024-02-03T16:11:21.552Z,1.45
2024-02-03T16:13:49.767Z,1.69
2024-02-03T16:16:17.648Z,1.63
2024-02-03T16:18:44.996Z,1.54
2024-02-03T16:21:12.150Z,1.59
2024-02-03T16:23:39.237Z,1.63
2024-02-03T16:26:06.784Z,1.47
2024-02-03T16:28:34.616Z,1.44
2024-02-03T16:31:01.874Z,1.35
2024-02-03T16:33:30.930Z,1.38
2024-02-03T16:35:58.376Z,1.31
2024-02-03T16:38:26.058Z,1.20
2024-02-03T16:40:53.729Z,1.22
2024-02-03T16:43:20.934Z,1.25
2024-02-03T16:45:48.095Z,1.22
2024-02-03T16:48:15.402Z,1.11
2024-02-03T16:50:42.757Z,1.09
2024-02-03T16:53:10.755Z,1.15
2024-02-03T16:55:37.918Z,1.14
2024-02-03T16:58:06.203Z,1.12
2024-02-03T17:00:38.416Z,1.09
2024-02-03T17:03:06.643Z,0.81
2024-02-03T17:05:33.899Z,1.08
2024-02-03T17:08:01.325Z,1.13
2024-02-03T17:10:28.510Z,1.05
2024-02-03T17:12:55.807Z,1.07
2024-02-03T17:15:23.185Z,1.13
2024-02-03T17:17:50.798Z,1.14
2024-02-03T17:20:18.472Z,1.08
2024-02-03T17:22:45.727Z,1.14
2024-02-03T17:25:12.872Z,1.18
2024-02-03T17:27:41.938Z,1.17
2024-02-03T17:30:14.706Z,1.20
2024-02-03T17:35:27.164Z,1.22
2024-02-03T17:37:54.372Z,1.14
2024-02-03T17:40:21.506Z,1.23
2024-02-03T17:42:50.813Z,1.22
2024-02-03T17:45:20.182Z,1.19
2024-02-03T17:47:48.627Z,1.15
2024-02-03T17:50:19.707Z,1.03
2024-02-03T17:52:49.845Z,1.04
2024-02-03T17:55:35.650Z,1.05
2024-02-03T17:58:02.833Z,1.02
2024-02-03T18:00:30.000Z,0.93
2024-02-03T18:02:57.164Z,0.93
2024-02-03T18:05:24.434Z,0.54
2024-02-03T18:07:51.665Z,0.80
2024-02-03T18:10:18.729Z,0.84
2024-02-03T18:12:46.060Z,0.69
2024-02-03T18:15:13.452Z,0.75
2024-02-03T18:17:40.671Z,0.86
2024-02-03T18:20:10.321Z,0.94
2024-02-03T18:22:37.489Z,0.92
2024-02-03T18:25:05.051Z,0.68
2024-02-03T18:27:32.232Z,1.02
2024-02-03T18:29:59.417Z,0.88
2024-02-03T18:32:26.896Z,0.96
2024-02-03T18:34:54.072Z,1.01
2024-02-03T18:37:21.190Z,0.97
2024-02-03T18:39:53.732Z,1.00
2024-02-03T18:42:21.581Z,0.96
2024-02-03T18:44:48.803Z,0.93
2024-02-03T18:47:15.918Z,0.84
2024-02-03T18:49:43.277Z,0.93
2024-02-03T18:52:10.495Z,0.95
2024-02-03T18:54:37.628Z,0.81
2024-02-03T18:57:05.037Z,0.78
2024-02-03T18:59:32.141Z,0.86
2024-02-03T19:01:59.233Z,0.76
2024-02-03T19:04:26.458Z,0.79
2024-02-03T19:06:53.755Z,0.89
2024-02-03T19:09:21.725Z,0.82
2024-02-03T19:11:51.015Z,0.88
2024-02-03T19:14:39.695Z,0.80
2024-02-03T19:17:07.025Z,0.87
2024-02-03T19:19:36.445Z,0.89
2024-02-03T19:22:05.182Z,0.93
2024-02-03T19:24:32.447Z,0.88
2024-02-03T19:26:59.560Z,0.89
2024-02-03T19:29:27.946Z,0.85
2024-02-03T19:31:55.060Z,0.90
2024-02-03T19:34:23.174Z,0.50
2024-02-03T19:36:50.309Z,0.89
2024-02-03T19:39:17.459Z,0.91
2024-02-03T19:41:44.606Z,0.94
2024-02-03T19:44:11.945Z,0.91
2024-02-03T19:46:40.038Z,0.77
2024-02-03T19:49:08.269Z,0.83
2024-02-03T19:51:35.819Z,0.69
2024-02-03T19:54:02.974Z,0.72
2024-02-03T19:56:30.073Z,0.76
2024-02-03T19:58:57.210Z,0.80
2024-02-03T20:01:24.525Z,0.77
2024-02-03T20:06:36.045Z,0.75
2024-02-03T20:09:03.587Z,0.78
2024-02-03T20:11:30.800Z,0.75
2024-02-03T20:13:57.994Z,0.73
2024-02-03T20:16:25.311Z,0.83
2024-02-03T20:18:52.675Z,0.81
2024-02-03T20:21:38.310Z,0.78
2024-02-03T20:24:05.745Z,0.79
2024-02-03T20:26:32.828Z,0.84
2024-02-03T20:28:59.966Z,0.88
2024-02-03T20:31:27.180Z,0.78
2024-02-03T20:33:54.561Z,0.90
2024-02-03T20:36:21.750Z,0.90
2024-02-03T20:39:10.110Z,0.96
2024-02-03T20:41:37.471Z,0.99
2024-02-03T20:44:06.236Z,0.97
2024-02-03T20:46:33.397Z,1.02
2024-02-03T20:49:00.696Z,1.03
2024-02-03T20:51:27.991Z,1.06
2024-02-03T20:53:55.240Z,1.08
2024-02-03T20:57:00.062Z,1.04
2024-02-03T20:59:27.293Z,1.00
2024-02-03T21:01:54.474Z,1.05
2024-02-03T21:04:40.366Z,1.10
2024-02-03T21:07:10.014Z,1.04
2024-02-03T21:09:37.217Z,1.14
2024-02-03T21:12:04.479Z,1.09
2024-02-03T21:14:31.604Z,1.04
2024-02-03T21:16:59.536Z,0.97
2024-02-03T21:19:26.968Z,1.14
2024-02-03T21:21:54.228Z,1.04
2024-02-03T21:24:21.429Z,1.04
2024-02-03T21:26:49.429Z,0.95
2024-02-03T21:29:16.742Z,0.93
2024-02-03T21:31:43.964Z,1.07
2024-02-03T21:34:11.722Z,1.06
2024-02-03T21:36:38.959Z,1.01
2024-02-03T21:39:06.365Z,0.98
2024-02-03T21:41:33.922Z,1.04
2024-02-03T21:44:01.034Z,1.12
2024-02-03T21:46:28.152Z,1.16
2024-02-03T21:48:55.485Z,1.01
2024-02-03T21:51:22.766Z,1.24
2024-02-03T21:53:49.999Z,1.22
2024-02-03T21:56:18.574Z,1.35
2024-02-03T21:59:04.634Z,1.32
2024-02-03T22:01:32.597Z,1.31
2024-02-03T22:04:00.097Z,1.35
2024-02-03T22:06:27.347Z,1.35
2024-02-03T22:09:17.365Z,1.46
2024-02-03T22:11:45.386Z,0.98
2024-02-03T22:14:12.719Z,0.99
2024-02-03T22:16:40.593Z,1.35
2024-02-03T22:19:07.849Z,1.41
2024-02-03T22:21:35.060Z,1.36
2024-02-03T22:24:02.379Z,1.45
2024-02-03T22:26:29.456Z,1.35
2024-02-03T22:28:56.554Z,1.35
2024-02-03T22:31:23.678Z,1.34
2024-02-03T22:33:50.819Z,1.43
2024-02-03T22:36:17.962Z,1.46
2024-02-03T22:38:45.082Z,1.49
2024-02-03T22:41:12.232Z,1.55
2024-02-03T22:43:39.320Z,1.50
2024-02-03T22:46:07.628Z,1.47
2024-02-03T22:48:34.951Z,1.50
2024-02-03T22:51:20.752Z,1.52
2024-02-03T22:53:47.907Z,1.54
2024-02-03T22:56:14.991Z,1.56
2024-02-03T22:58:42.050Z,1.45
2024-02-03T23:01:09.271Z,1.42
2024-02-03T23:03:36.489Z,1.51
2024-02-03T23:06:04.285Z,1.58
2024-02-03T23:08:31.422Z,1.55
2024-02-03T23:11:17.270Z,1.56
2024-02-03T23:13:44.354Z,1.66
2024-02-03T23:16:11.530Z,1.62
2024-02-03T23:18:38.855Z,1.57
2024-02-03T23:21:07.628Z,1.47
2024-02-03T23:23:35.522Z,1.65
2024-02-03T23:26:02.727Z,1.63
2024-02-03T23:28:32.318Z,1.66
2024-02-03T23:31:02.779Z,1.70
2024-02-03T23:33:30.156Z,1.73
2024-02-03T23:36:16.125Z,1.55
2024-02-03T23:38:43.220Z,1.72
2024-02-03T23:43:54.738Z,1.67
2024-02-03T23:46:21.941Z,1.61
2024-02-03T23:48:49.209Z,1.57
2024-02-03T23:51:16.383Z,1.56
2024-02-03T23:53:43.456Z,1.58
2024-02-03T23:56:10.554Z,1.62
2024-02-03T23:58:38.718Z,1.65
